createdAt,value
2023-02-01T00:00:27.622Z,101583.41
2023-02-01T00:02:54.037Z,101587.13
2023-02-01T00:05:20.422Z,101581.53
2023-02-01T00:07:49.573Z,101575.69
2023-02-01T00:10:16.169Z,101577.16
2023-02-01T00:12:42.663Z,101578.81
2023-02-01T00:15:09.542Z,101575.47
2023-02-01T00:17:36.290Z,101588.19
2023-02-01T00:20:03.112Z,101592.97
2023-02-01T00:22:29.632Z,101593.78
2023-02-01T00:24:56.110Z,101594.63
2023-02-01T00:27:22.673Z,101599.22
2023-02-01T00:29:49.245Z,101596.28
2023-02-01T00:32:15.851Z,101598.16
2023-02-01T00:34:42.539Z,101580.06
2023-02-01T00:37:08.996Z,101585.47
2023-02-01T00:39:35.677Z,101578.00
2023-02-01T00:42:03.059Z,101577.59
2023-02-01T00:44:33.958Z,101579.66
2023-02-01T00:47:01.298Z,101569.03
2023-02-01T00:49:28.839Z,101580.91
2023-02-01T00:51:55.321Z,101577.13
2023-02-01T00:54:21.873Z,101586.53
2023-02-01T00:56:48.250Z,101590.06
2023-02-01T00:59:15.032Z,101590.44
2023-02-01T01:01:41.468Z,101587.56
2023-02-01T01:04:07.921Z,101563.63
2023-02-01T01:06:35.059Z,101560.28
2023-02-01T01:09:04.287Z,101552.19
2023-02-01T01:11:34.020Z,101539.72
2023-02-01T01:14:01.580Z,101532.25
2023-02-01T01:16:29.860Z,101526.84
2023-02-01T01:18:57.129Z,101534.31
2023-02-01T01:21:24.040Z,101552.81
2023-02-01T01:23:50.602Z,101564.25
2023-02-01T01:26:20.115Z,101559.47
2023-02-01T01:28:46.734Z,101567.78
2023-02-01T01:31:15.151Z,101578.38
2023-02-01T01:33:41.578Z,101585.88
2023-02-01T01:36:12.492Z,101585.03
2023-02-01T01:38:42.630Z,101585.44
2023-02-01T01:41:12.816Z,101592.09
2023-02-01T01:43:58.230Z,101590.03
2023-02-01T01:46:30.741Z,101585.00
2023-02-01T01:49:06.702Z,101588.53
2023-02-01T01:51:38.933Z,101584.59
2023-02-01T01:54:18.359Z,101586.28
2023-02-01T01:56:51.969Z,101572.97
2023-02-01T01:59:18.929Z,101569.63
2023-02-01T02:01:46.576Z,101567.31
2023-02-01T02:04:13.095Z,101569.41
2023-02-01T02:07:01.657Z,101566.06
2023-02-01T02:09:28.324Z,101558.38
2023-02-01T02:11:54.734Z,101543.84
2023-02-01T02:14:23.981Z,101540.09
2023-02-01T02:16:59.883Z,101554.03
2023-02-01T02:20:05.879Z,101545.09
2023-02-01T02:23:07.792Z,101545.91
2023-02-01T02:25:40.126Z,101536.34
2023-02-01T02:28:25.811Z,101538.66
2023-02-01T02:31:29.489Z,101538.84
2023-02-01T02:34:16.572Z,101536.34
2023-02-01T02:36:51.515Z,101535.09
2023-02-01T02:39:30.423Z,101533.84
2023-02-01T02:42:32.241Z,101547.16
2023-02-01T02:45:27.357Z,101534.28
2023-02-01T02:48:12.616Z,101533.44
2023-02-01T02:51:18.195Z,101533.03
2023-02-01T02:54:12.851Z,101523.91
2023-02-01T02:56:59.101Z,101523.47
2023-02-01T02:59:46.403Z,101524.28
2023-02-01T03:02:33.341Z,101519.72
2023-02-01T03:04:59.926Z,101521.41
2023-02-01T03:07:45.206Z,101523.47
2023-02-01T03:10:24.519Z,101513.91
2023-02-01T03:12:56.461Z,101514.75
2023-02-01T03:15:36.484Z,101499.16
2023-02-01T03:18:08.248Z,101505.59
2023-02-01T03:20:36.005Z,101498.94
2023-02-01T03:23:07.616Z,101501.44
2023-02-01T03:25:35.292Z,101504.75
2023-02-01T03:28:07.080Z,101511.00
2023-02-01T03:30:44.092Z,101517.69
2023-02-01T03:33:24.228Z,101513.09
2023-02-01T03:35:58.196Z,101512.28
2023-02-01T03:38:33.624Z,101513.53
2023-02-01T03:41:21.022Z,101513.91
2023-02-01T03:44:23.588Z,101508.50
2023-02-01T03:47:11.457Z,101502.72
2023-02-01T03:49:43.064Z,101512.03
2023-02-01T03:52:17.026Z,101500.22
2023-02-01T03:54:44.930Z,101494.19
2023-02-01T03:57:15.148Z,101492.31
2023-02-01T03:59:43.525Z,101486.09
2023-02-01T04:02:10.055Z,101485.25
2023-02-01T04:04:36.701Z,101484.00
2023-02-01T04:07:03.823Z,101498.97
2023-02-01T04:09:30.522Z,101499.78
2023-02-01T04:11:57.082Z,101499.97
2023-02-01T04:14:23.499Z,101498.34
2023-02-01T04:16:50.232Z,101505.41
2023-02-01T04:19:16.660Z,101502.28
2023-02-01T04:21:43.078Z,101505.00
2023-02-01T04:24:09.749Z,101499.78
2023-02-01T04:26:36.408Z,101494.00
2023-02-01T04:29:03.044Z,101495.84
2023-02-01T04:31:29.683Z,101500.22
2023-02-01T04:33:58.462Z,101496.47
2023-02-01T04:36:24.908Z,101486.47
2023-02-01T04:38:52.353Z,101486.47
2023-02-01T04:41:20.054Z,101487.34
2023-02-01T04:43:47.872Z,101486.09
2023-02-01T04:46:14.788Z,101486.47
2023-02-01T04:48:41.471Z,101461.53
2023-02-01T04:51:07.825Z,101448.66
2023-02-01T04:53:34.701Z,101440.38
2023-02-01T04:56:01.129Z,101444.09
2023-02-01T04:58:27.534Z,101459.88
2023-02-01T05:00:54.030Z,101467.34
2023-02-01T05:03:20.493Z,101469.22
2023-02-01T05:05:49.521Z,101464.03
2023-02-01T05:08:16.171Z,101460.50
2023-02-01T05:10:42.546Z,101471.50
2023-02-01T05:13:29.278Z,101470.44
2023-02-01T05:15:55.801Z,101472.94
2023-02-01T05:18:22.189Z,101479.78
2023-02-01T05:20:48.612Z,101483.53
2023-02-01T05:23:14.999Z,101484.34
2023-02-01T05:25:41.431Z,101472.72
2023-02-01T05:28:07.776Z,101475.81
2023-02-01T05:30:36.301Z,101471.84
2023-02-01T05:33:04.365Z,101475.59
2023-02-01T05:35:31.082Z,101470.63
2023-02-01T05:37:57.612Z,101475.22
2023-02-01T05:40:24.394Z,101469.19
2023-02-01T05:42:51.173Z,101475.16
2023-02-01T05:45:17.780Z,101476.81
2023-02-01T05:47:44.211Z,101481.63
2023-02-01T05:50:10.843Z,101484.09
2023-02-01T05:52:37.344Z,101481.81
2023-02-01T05:55:04.054Z,101466.03
2023-02-01T05:57:31.118Z,101482.84
2023-02-01T05:59:58.945Z,101482.00
2023-02-01T06:02:26.683Z,101488.63
2023-02-01T06:04:53.220Z,101478.88
2023-02-01T06:07:19.812Z,101490.72
2023-02-01T06:09:46.205Z,101493.00
2023-02-01T06:12:13.234Z,101498.84
2023-02-01T06:14:39.765Z,101493.44
2023-02-01T06:17:07.197Z,101478.44
2023-02-01T06:19:33.595Z,101480.97
2023-02-01T06:22:00.062Z,101483.66
2023-02-01T06:24:26.486Z,101489.69
2023-02-01T06:26:53.116Z,101487.41
2023-02-01T06:29:19.701Z,101485.53
2023-02-01T06:31:46.225Z,101482.41
2023-02-01T06:34:13.207Z,101487.59
2023-02-01T06:36:39.628Z,101495.88
2023-02-01T06:39:05.975Z,101489.25
2023-02-01T06:41:32.378Z,101499.66
2023-02-01T06:43:58.836Z,101516.28
2023-02-01T06:46:25.273Z,101501.34
2023-02-01T06:48:52.250Z,101514.22
2023-02-01T06:51:24.195Z,101515.91
2023-02-01T06:53:50.727Z,101511.13
2023-02-01T06:56:17.240Z,101514.03
2023-02-01T06:58:43.649Z,101523.00
2023-02-01T07:01:11.799Z,101502.66
2023-02-01T07:03:38.954Z,101510.56
2023-02-01T07:06:06.454Z,101509.50
2023-02-01T07:08:35.075Z,101512.19
2023-02-01T07:11:11.060Z,101513.66
2023-02-01T07:13:38.273Z,101523.63
2023-02-01T07:16:08.073Z,101522.56
2023-02-01T07:18:34.631Z,101525.91
2023-02-01T07:21:01.457Z,101511.38
2023-02-01T07:23:28.516Z,101524.69
2023-02-01T07:26:00.738Z,101529.66
2023-02-01T07:28:28.925Z,101539.22
2023-02-01T07:30:55.335Z,101541.72
2023-02-01T07:33:27.093Z,101534.63
2023-02-01T07:35:54.733Z,101548.75
2023-02-01T07:38:22.625Z,101535.03
2023-02-01T07:40:49.011Z,101539.00
2023-02-01T07:43:15.365Z,101549.56
2023-02-01T07:45:41.876Z,101538.13
2023-02-01T07:48:08.307Z,101543.97
2023-02-01T07:50:34.752Z,101540.19
2023-02-01T07:53:01.876Z,101546.66
2023-02-01T07:55:28.403Z,101539.19
2023-02-01T07:57:58.149Z,101544.59
2023-02-01T08:00:43.305Z,101526.72
2023-02-01T08:03:09.713Z,101529.59
2023-02-01T08:05:37.815Z,101542.06
2023-02-01T08:08:04.667Z,101548.28
2023-02-01T08:10:31.190Z,101545.78
2023-02-01T08:13:01.165Z,101557.22
2023-02-01T08:15:28.440Z,101549.75
2023-02-01T08:17:55.746Z,101549.94
2023-02-01T08:20:29.206Z,101553.06
2023-02-01T08:22:56.123Z,101546.41
2023-02-01T08:25:23.236Z,101562.81
2023-02-01T08:27:49.842Z,101558.28
2023-02-01T08:30:16.678Z,101560.56
2023-02-01T08:32:43.174Z,101557.84
2023-02-01T08:35:10.114Z,101560.97
2023-02-01T08:37:49.759Z,101564.94
2023-02-01T08:40:16.431Z,101564.94
2023-02-01T08:42:51.858Z,101561.59
2023-02-01T08:45:22.983Z,101572.81
2023-02-01T08:47:49.676Z,101576.34
2023-02-01T08:50:16.681Z,101579.06
2023-02-01T08:52:43.221Z,101580.31
2023-02-01T08:55:10.128Z,101593.44
2023-02-01T08:57:36.776Z,101589.50
2023-02-01T09:00:05.454Z,101587.81
2023-02-01T09:02:32.145Z,101592.44
2023-02-01T09:05:00.828Z,101587.44
2023-02-01T09:07:27.265Z,101591.38
2023-02-01T09:09:55.521Z,101583.47
2023-02-01T09:12:22.063Z,101581.22
2023-02-01T09:14:48.545Z,101587.03
2023-02-01T09:17:14.944Z,101573.09
2023-02-01T09:19:42.960Z,101577.25
2023-02-01T09:22:09.605Z,101570.63
2023-02-01T09:24:36.148Z,101571.91
2023-02-01T09:27:02.532Z,101577.50
2023-02-01T09:29:29.167Z,101575.44
2023-02-01T09:32:03.160Z,101622.59
2023-02-01T09:34:30.639Z,101571.16
2023-02-01T09:36:57.206Z,101570.44
2023-02-01T09:39:24.091Z,101578.56
2023-02-01T09:42:09.027Z,101580.41
2023-02-01T09:44:44.619Z,101574.09
2023-02-01T09:47:17.548Z,101571.31
2023-02-01T09:49:57.522Z,101575.34
2023-02-01T09:52:32.306Z,101568.13
2023-02-01T09:55:05.523Z,101565.66
2023-02-01T09:57:46.344Z,101560.66
2023-02-01T10:00:28.265Z,101572.06
2023-02-01T10:02:56.478Z,101568.94
2023-02-01T10:05:47.714Z,101572.16
2023-02-01T10:08:30.921Z,101562.94
2023-02-01T10:11:12.380Z,101565.03
2023-02-01T10:14:04.006Z,101563.63
2023-02-01T10:17:06.107Z,101554.69
2023-02-01T10:19:42.871Z,101562.16
2023-02-01T10:22:11.843Z,101544.72
2023-02-01T10:24:58.058Z,101543.94
2023-02-01T10:27:34.036Z,101546.44
2023-02-01T10:30:06.818Z,101543.75
2023-02-01T10:32:36.379Z,101552.50
2023-02-01T10:35:13.825Z,101553.19
2023-02-01T10:37:42.791Z,101554.00
2023-02-01T10:40:15.202Z,101561.94
2023-02-01T10:42:41.875Z,101546.38
2023-02-01T10:45:21.078Z,101540.81
2023-02-01T10:47:50.610Z,101546.66
2023-02-01T10:50:28.632Z,101539.84
2023-02-01T10:53:05.712Z,101535.72
2023-02-01T10:55:46.850Z,101531.19
2023-02-01T10:58:19.667Z,101530.19
2023-02-01T11:00:54.588Z,101526.00
2023-02-01T11:03:33.541Z,101537.88
2023-02-01T11:06:00.661Z,101535.56
2023-02-01T11:08:27.320Z,101541.38
2023-02-01T11:11:03.461Z,101527.44
2023-02-01T11:13:34.178Z,101533.47
2023-02-01T11:16:04.572Z,101552.41
2023-02-01T11:18:36.095Z,101541.97
2023-02-01T11:21:03.616Z,101538.25
2023-02-01T11:23:34.558Z,101531.16
2023-02-01T11:26:08.680Z,101524.72
2023-02-01T11:28:39.350Z,101520.13
2023-02-01T11:31:10.378Z,101525.97
2023-02-01T11:33:39.509Z,101530.13
2023-02-01T11:36:13.092Z,101524.25
2023-02-01T11:38:39.603Z,101522.59
2023-02-01T11:41:24.140Z,101533.81
2023-02-01T11:43:54.594Z,101524.47
2023-02-01T11:46:26.340Z,101519.22
2023-02-01T11:48:55.961Z,101516.75
2023-02-01T11:51:45.559Z,101516.75
2023-02-01T11:54:33.307Z,101514.47
2023-02-01T11:57:19.143Z,101498.88
2023-02-01T12:00:16.249Z,101495.56
2023-02-01T12:03:06.554Z,101492.19
2023-02-01T12:05:56.462Z,101482.03
2023-02-01T12:08:48.028Z,101473.88
2023-02-01T12:11:40.335Z,101482.19
2023-02-01T12:14:18.787Z,101468.88
2023-02-01T12:17:41.993Z,101466.59
2023-02-01T12:20:14.485Z,101467.66
2023-02-01T12:22:59.636Z,101468.69
2023-02-01T12:25:39.174Z,101465.09
2023-02-01T12:28:36.629Z,101472.22
2023-02-01T12:31:13.343Z,101485.53
2023-02-01T12:34:04.833Z,101481.59
2023-02-01T12:36:42.345Z,101479.69
2023-02-01T12:39:25.110Z,101477.59
2023-02-01T12:41:57.829Z,101468.88
2023-02-01T12:44:49.065Z,101474.72
2023-02-01T12:47:25.071Z,101470.97
2023-02-01T12:50:01.832Z,101454.97
2023-02-01T12:52:28.283Z,101451.81
2023-02-01T12:55:09.089Z,101443.06
2023-02-01T12:57:41.080Z,101428.09
2023-02-01T13:00:23.166Z,101429.75
2023-02-01T13:03:04.614Z,101425.16
2023-02-01T13:06:17.360Z,101423.91
2023-02-01T13:08:50.847Z,101424.34
2023-02-01T13:11:36.288Z,101421.03
2023-02-01T13:14:17.891Z,101421.84
2023-02-01T13:16:48.453Z,101412.25
2023-02-01T13:19:37.820Z,101409.75
2023-02-01T13:22:08.975Z,101401.22
2023-02-01T13:24:46.163Z,101397.06
2023-02-01T13:27:14.820Z,101398.13
2023-02-01T13:29:59.376Z,101399.72
2023-02-01T13:33:51.026Z,101387.91
2023-02-01T13:35:51.861Z,101386.41
2023-02-01T13:38:45.049Z,101386.03
2023-02-01T13:41:27.700Z,101385.41
2023-02-01T13:43:58.899Z,101396.84
2023-02-01T13:46:25.707Z,101390.41
2023-02-01T13:48:59.000Z,101391.66
2023-02-01T13:51:43.465Z,101387.69
2023-02-01T13:54:27.241Z,101393.94
2023-02-01T13:56:55.202Z,101382.28
2023-02-01T13:59:40.481Z,101387.69
2023-02-01T14:02:40.982Z,101388.72
2023-02-01T14:05:13.315Z,101377.91
2023-02-01T14:08:10.735Z,101383.94
2023-02-01T14:10:50.096Z,101382.72
2023-02-01T14:13:39.018Z,101390.63
2023-02-01T14:16:05.573Z,101383.94
2023-02-01T14:18:38.274Z,101388.53
2023-02-01T14:21:29.439Z,101388.69
2023-02-01T14:24:11.003Z,101392.00
2023-02-01T14:26:47.714Z,101399.72
2023-02-01T14:29:20.717Z,101390.97
2023-02-01T14:32:06.773Z,101396.38
2023-02-01T14:34:43.920Z,101408.25
2023-02-01T14:37:25.329Z,101405.34
2023-02-01T14:40:05.770Z,101410.94
2023-02-01T14:42:54.293Z,101415.94
2023-02-01T14:45:22.811Z,101413.84
2023-02-01T14:47:50.695Z,101409.22
2023-02-01T14:50:33.982Z,101428.34
2023-02-01T14:53:09.703Z,101417.53
2023-02-01T14:55:54.860Z,101415.88
2023-02-01T14:58:52.234Z,101416.31
2023-02-01T15:01:25.401Z,101404.44
2023-02-01T15:04:16.068Z,101418.81
2023-02-01T15:06:45.268Z,101408.38
2023-02-01T15:09:17.996Z,101412.13
2023-02-01T15:12:03.526Z,101424.63
2023-02-01T15:14:36.945Z,101402.34
2023-02-01T15:17:04.649Z,101418.75
2023-02-01T15:19:31.764Z,101414.41
2023-02-01T15:22:00.013Z,101419.19
2023-02-01T15:24:29.282Z,101427.09
2023-02-01T15:26:56.876Z,101438.31
2023-02-01T15:29:28.547Z,101438.78
2023-02-01T15:31:55.838Z,101438.78
2023-02-01T15:34:22.499Z,101445.22
2023-02-01T15:37:02.553Z,101444.00
2023-02-01T15:39:32.433Z,101434.22
2023-02-01T15:42:09.737Z,101439.19
2023-02-01T15:44:41.964Z,101451.25
2023-02-01T15:47:15.776Z,101437.91
2023-02-01T15:49:44.400Z,101427.94
2023-02-01T15:52:28.749Z,101436.66
2023-02-01T15:55:00.234Z,101431.47
2023-02-01T15:57:40.350Z,101432.50
2023-02-01T16:00:35.857Z,101430.66
2023-02-01T16:03:05.818Z,101429.38
2023-02-01T16:05:43.833Z,101427.69
2023-02-01T16:08:22.750Z,101433.34
2023-02-01T16:10:52.215Z,101440.00
2023-02-01T16:13:20.938Z,101440.41
2023-02-01T16:15:48.615Z,101444.53
2023-02-01T16:18:18.655Z,101452.03
2023-02-01T16:20:46.359Z,101453.09
2023-02-01T16:23:12.998Z,101456.00
2023-02-01T16:25:40.251Z,101450.81
2023-02-01T16:28:06.890Z,101463.75
2023-02-01T16:30:34.136Z,101459.38
2023-02-01T16:33:06.337Z,101464.13
2023-02-01T16:35:38.229Z,101467.88
2023-02-01T16:38:09.612Z,101473.53
2023-02-01T16:40:36.245Z,101453.34
2023-02-01T16:43:03.420Z,101452.91
2023-02-01T16:45:29.957Z,101458.75
2023-02-01T16:48:36.642Z,101455.88
2023-02-01T16:51:08.552Z,101451.50
2023-02-01T16:53:48.237Z,101465.03
2023-02-01T16:56:20.535Z,101471.31
2023-02-01T16:58:47.688Z,101470.91
2023-02-01T17:01:19.241Z,101480.09
2023-02-01T17:03:46.767Z,101474.28
2023-02-01T17:06:19.288Z,101483.44
2023-02-01T17:08:51.064Z,101492.59
2023-02-01T17:11:18.643Z,101482.81
2023-02-01T17:13:46.336Z,101494.25
2023-02-01T17:16:18.981Z,101495.06
2023-02-01T17:18:53.740Z,101496.78
2023-02-01T17:21:24.369Z,101485.09
2023-02-01T17:23:51.266Z,101491.78
2023-02-01T17:26:17.651Z,101491.78
2023-02-01T17:28:44.180Z,101489.47
2023-02-01T17:31:15.966Z,101495.72
2023-02-01T17:33:44.527Z,101497.59
2023-02-01T17:36:14.567Z,101502.63
2023-02-01T17:38:41.237Z,101510.09
2023-02-01T17:41:11.059Z,101509.91
2023-02-01T17:43:37.750Z,101516.16
2023-02-01T17:46:13.790Z,101511.78
2023-02-01T17:48:40.693Z,101503.69
2023-02-01T17:51:17.190Z,101520.91
2023-02-01T17:53:44.403Z,101507.19
2023-02-01T17:56:20.501Z,101513.44
2023-02-01T17:58:47.863Z,101519.47
2023-02-01T18:01:19.543Z,101514.50
2023-02-01T18:03:46.206Z,101517.63
2023-02-01T18:06:14.884Z,101513.03
2023-02-01T18:08:41.643Z,101513.44
2023-02-01T18:11:16.750Z,101514.06
2023-02-01T18:13:43.413Z,101519.91
2023-02-01T18:16:24.750Z,101523.47
2023-02-01T18:18:52.161Z,101521.59
2023-02-01T18:21:21.293Z,101525.53
2023-02-01T18:23:48.677Z,101515.13
2023-02-01T18:26:18.953Z,101518.22
2023-02-01T18:28:45.627Z,101514.50
2023-02-01T18:31:25.288Z,101515.31
2023-02-01T18:33:53.760Z,101512.41
2023-02-01T18:36:20.863Z,101522.00
2023-02-01T18:38:47.725Z,101529.66
2023-02-01T18:41:23.288Z,101504.28
2023-02-01T18:43:51.443Z,101505.31
2023-02-01T18:46:18.349Z,101509.25
2023-02-01T18:48:44.947Z,101510.94
2023-02-01T18:51:19.901Z,101515.53
2023-02-01T18:53:47.857Z,101506.34
2023-02-01T18:56:15.381Z,101509.47
2023-02-01T18:58:42.098Z,101507.59
2023-02-01T19:01:15.489Z,101513.63
2023-02-01T19:03:45.415Z,101503.00
2023-02-01T19:06:16.136Z,101512.78
2023-02-01T19:08:45.523Z,101507.81
2023-02-01T19:11:12.150Z,101515.69
2023-02-01T19:13:40.046Z,101512.16
2023-02-01T19:16:11.836Z,101522.78
2023-02-01T19:18:38.891Z,101518.66
2023-02-01T19:21:08.255Z,101513.81
2023-02-01T19:23:34.807Z,101513.56
2023-02-01T19:26:01.406Z,101507.34
2023-02-01T19:28:27.911Z,101511.31
2023-02-01T19:31:05.499Z,101506.50
2023-02-01T19:33:31.982Z,101502.97
2023-02-01T19:36:06.059Z,101519.22
2023-02-01T19:38:33.383Z,101498.63
2023-02-01T19:40:59.861Z,101499.25
2023-02-01T19:43:26.785Z,101497.97
2023-02-01T19:45:53.839Z,101506.72
2023-02-01T19:48:20.531Z,101504.41
2023-02-01T19:50:47.921Z,101498.78
2023-02-01T19:53:14.364Z,101492.34
2023-02-01T19:55:45.645Z,101500.47
2023-02-01T19:58:12.228Z,101498.81
2023-02-01T20:00:37.773Z,101487.97
2023-02-01T20:03:04.616Z,101504.84
2023-02-01T20:05:31.423Z,101496.72
2023-02-01T20:07:57.836Z,101498.38
2023-02-01T20:10:24.360Z,101497.56
2023-02-01T20:12:50.960Z,101496.72
2023-02-01T20:15:17.451Z,101495.06
2023-02-01T20:17:44.707Z,101487.56
2023-02-01T20:20:11.778Z,101496.28
2023-02-01T20:22:38.246Z,101487.97
2023-02-01T20:25:05.675Z,101493.84
2023-02-01T20:27:33.115Z,101493.84
2023-02-01T20:29:59.819Z,101492.34
2023-02-01T20:32:26.175Z,101490.06
2023-02-01T20:34:53.254Z,101491.75
2023-02-01T20:37:20.675Z,101495.94
2023-02-01T20:39:47.139Z,101496.53
2023-02-01T20:42:13.685Z,101488.84
2023-02-01T20:44:40.138Z,101485.31
2023-02-01T20:47:06.493Z,101483.44
2023-02-01T20:49:34.578Z,101484.25
2023-02-01T20:52:01.129Z,101493.84
2023-02-01T20:54:27.578Z,101482.41
2023-02-01T20:56:54.184Z,101493.22
2023-02-01T20:59:20.799Z,101492.56
2023-02-01T21:01:53.494Z,101503.81
2023-02-01T21:04:29.569Z,101508.59
2023-02-01T21:06:57.527Z,101496.53
2023-02-01T21:09:24.740Z,101501.34
2023-02-01T21:11:53.342Z,101504.66
2023-02-01T21:14:20.381Z,101507.38
2023-02-01T21:16:47.585Z,101507.53
2023-02-01T21:19:14.145Z,101512.53
2023-02-01T21:21:42.044Z,101521.06
2023-02-01T21:24:08.625Z,101522.53
2023-02-01T21:26:41.304Z,101520.66
2023-02-01T21:29:13.401Z,101511.47
2023-02-01T21:31:40.853Z,101508.34
2023-02-01T21:34:08.345Z,101532.09
2023-02-01T21:36:35.428Z,101519.59
2023-02-01T21:39:04.298Z,101521.88
2023-02-01T21:41:50.856Z,101527.09
2023-02-01T21:44:17.553Z,101510.03
2023-02-01T21:46:44.411Z,101533.34
2023-02-01T21:49:11.253Z,101527.50
2023-02-01T21:51:40.536Z,101541.03
2023-02-01T21:54:09.294Z,101541.66
2023-02-01T21:56:37.007Z,101538.75
2023-02-01T21:59:03.954Z,101551.25
2023-02-01T22:01:30.458Z,101539.56
2023-02-01T22:03:56.996Z,101544.78
2023-02-01T22:06:26.983Z,101549.16
2023-02-01T22:08:53.912Z,101552.69
2023-02-01T22:11:20.626Z,101543.97
2023-02-01T22:13:47.047Z,101547.50
2023-02-01T22:16:15.561Z,101545.41
2023-02-01T22:18:42.126Z,101546.66
2023-02-01T22:21:09.086Z,101557.50
2023-02-01T22:23:35.693Z,101554.59
2023-02-01T22:26:04.428Z,101550.84
2023-02-01T22:28:33.744Z,101546.25
2023-02-01T22:31:05.679Z,101556.44
2023-02-01T22:33:33.718Z,101553.34
2023-02-01T22:36:01.108Z,101551.25
2023-02-01T22:38:30.535Z,101555.59
2023-02-01T22:40:58.353Z,101567.50
2023-02-01T22:43:25.701Z,101558.31
2023-02-01T22:45:52.665Z,101557.69
2023-02-01T22:48:19.156Z,101552.91
2023-02-01T22:50:45.780Z,101560.81
2023-02-01T22:53:12.736Z,101551.25
2023-02-01T22:55:40.982Z,101555.19
2023-02-01T22:58:08.254Z,101561.63
2023-02-01T23:00:34.962Z,101557.28
2023-02-01T23:03:01.496Z,101572.06
2023-02-01T23:05:28.060Z,101573.34
2023-02-01T23:07:54.454Z,101579.78
2023-02-01T23:10:21.701Z,101580.44
2023-02-01T23:12:48.224Z,101589.56
2023-02-01T23:15:16.141Z,101587.69
2023-02-01T23:17:44.027Z,101587.69
2023-02-01T23:20:16.836Z,101593.09
2023-02-01T23:22:45.098Z,101590.59
2023-02-01T23:25:13.665Z,101597.91
2023-02-01T23:27:40.557Z,101601.25
2023-02-01T23:30:08.152Z,101605.22
2023-02-01T23:32:35.879Z,101615.03
2023-02-01T23:35:03.355Z,101597.72
2023-02-01T23:37:29.787Z,101605.63
2023-02-01T23:39:56.251Z,101600.44
2023-02-01T23:42:22.961Z,101603.75
2023-02-01T23:44:49.573Z,101601.25
2023-02-01T23:47:16.150Z,101605.84
2023-02-01T23:49:42.954Z,101606.66
2023-02-01T23:52:09.802Z,101611.69
2023-02-01T23:54:42.297Z,101612.53
2023-02-01T23:57:08.937Z,101608.75
2023-02-01T23:59:35.533Z,101611.25
